sensor_id;sensor_type;location;lat;lon;timestamp;temperature;humidity
68439;SHT31;55421;51.600;5.718;2023-03-01T00:01:38;0.55;64.98
68439;SHT31;55421;51.600;5.718;2023-03-01T00:04:04;0.57;65.08
68439;SHT31;55421;51.600;5.718;2023-03-01T00:09:01;0.54;65.22
68439;SHT31;55421;51.600;5.718;2023-03-01T00:11:28;0.51;65.31
68439;SHT31;55421;51.600;5.718;2023-03-01T00:13:58;0.46;65.38
68439;SHT31;55421;51.600;5.718;2023-03-01T00:16:28;0.41;65.48
68439;SHT31;55421;51.600;5.718;2023-03-01T00:18:59;0.37;65.59
68439;SHT31;55421;51.600;5.718;2023-03-01T00:21:26;0.30;65.70
68439;SHT31;55421;51.600;5.718;2023-03-01T00:23:53;0.26;65.82
68439;SHT31;55421;51.600;5.718;2023-03-01T00:26:21;0.20;65.96
68439;SHT31;55421;51.600;5.718;2023-03-01T00:28:50;0.16;66.06
68439;SHT31;55421;51.600;5.718;2023-03-01T00:31:19;0.13;66.19
68439;SHT31;55421;51.600;5.718;2023-03-01T00:33:51;0.12;66.29
68439;SHT31;55421;51.600;5.718;2023-03-01T00:36:23;0.15;66.39
68439;SHT31;55421;51.600;5.718;2023-03-01T00:38:53;0.19;66.49
68439;SHT31;55421;51.600;5.718;2023-03-01T00:41:21;0.21;66.51
68439;SHT31;55421;51.600;5.718;2023-03-01T00:43:49;0.22;66.53
68439;SHT31;55421;51.600;5.718;2023-03-01T00:46:18;0.22;66.55
68439;SHT31;55421;51.600;5.718;2023-03-01T00:48:47;0.20;66.56
68439;SHT31;55421;51.600;5.718;2023-03-01T00:51:18;0.16;66.60
68439;SHT31;55421;51.600;5.718;2023-03-01T00:53:54;0.10;66.65
68439;SHT31;55421;51.600;5.718;2023-03-01T00:56:24;0.06;66.72
68439;SHT31;55421;51.600;5.718;2023-03-01T00:58:52;0.02;66.80
68439;SHT31;55421;51.600;5.718;2023-03-01T01:01:20;-0.02;66.84
68439;SHT31;55421;51.600;5.718;2023-03-01T01:03:54;-0.06;66.90
68439;SHT31;55421;51.600;5.718;2023-03-01T01:06:32;-0.12;66.95
68439;SHT31;55421;51.600;5.718;2023-03-01T01:09:02;-0.19;67.02
68439;SHT31;55421;51.600;5.718;2023-03-01T01:11:32;-0.22;67.15
68439;SHT31;55421;51.600;5.718;2023-03-01T01:14:01;-0.20;67.21
68439;SHT31;55421;51.600;5.718;2023-03-01T01:16:29;-0.19;67.30
68439;SHT31;55421;51.600;5.718;2023-03-01T01:18:56;-0.16;67.39
68439;SHT31;55421;51.600;5.718;2023-03-01T01:21:23;-0.15;67.40
68439;SHT31;55421;51.600;5.718;2023-03-01T01:23:51;-0.14;67.42
68439;SHT31;55421;51.600;5.718;2023-03-01T01:26:19;-0.16;67.40
68439;SHT31;55421;51.600;5.718;2023-03-01T01:28:52;-0.18;67.40
68439;SHT31;55421;51.600;5.718;2023-03-01T01:31:20;-0.20;67.46
68439;SHT31;55421;51.600;5.718;2023-03-01T01:33:49;-0.22;67.56
68439;SHT31;55421;51.600;5.718;2023-03-01T01:36:20;-0.23;67.61
68439;SHT31;55421;51.600;5.718;2023-03-01T01:38:47;-0.24;67.68
68439;SHT31;55421;51.600;5.718;2023-03-01T01:41:14;-0.25;67.70
68439;SHT31;55421;51.600;5.718;2023-03-01T01:43:43;-0.26;67.76
68439;SHT31;55421;51.600;5.718;2023-03-01T01:48:53;-0.32;67.73
68439;SHT31;55421;51.600;5.718;2023-03-01T01:51:30;-0.38;67.64
68439;SHT31;55421;51.600;5.718;2023-03-01T01:54:08;-0.41;67.75
68439;SHT31;55421;51.600;5.718;2023-03-01T01:56:40;-0.43;67.86
68439;SHT31;55421;51.600;5.718;2023-03-01T01:59:16;-0.40;67.90
68439;SHT31;55421;51.600;5.718;2023-03-01T02:01:43;-0.38;67.99
68439;SHT31;55421;51.600;5.718;2023-03-01T02:04:09;-0.37;68.08
68439;SHT31;55421;51.600;5.718;2023-03-01T02:06:38;-0.36;68.11
68439;SHT31;55421;51.600;5.718;2023-03-01T02:09:12;-0.40;68.12
68439;SHT31;55421;51.600;5.718;2023-03-01T02:11:43;-0.44;68.18
68439;SHT31;55421;51.600;5.718;2023-03-01T02:14:10;-0.49;68.21
68439;SHT31;55421;51.600;5.718;2023-03-01T02:16:37;-0.55;68.30
68439;SHT31;55421;51.600;5.718;2023-03-01T02:19:03;-0.61;68.38
68439;SHT31;55421;51.600;5.718;2023-03-01T02:21:37;-0.64;68.47
68439;SHT31;55421;51.600;5.718;2023-03-01T02:27:42;-0.64;68.82
68439;SHT31;55421;51.600;5.718;2023-03-01T02:30:18;-0.60;68.96
68439;SHT31;55421;51.600;5.718;2023-03-01T02:32:47;-0.56;69.05
68439;SHT31;55421;51.600;5.718;2023-03-01T02:35:17;-0.56;69.09
68439;SHT31;55421;51.600;5.718;2023-03-01T02:37:45;-0.57;69.10
68439;SHT31;55421;51.600;5.718;2023-03-01T02:40:16;-0.58;69.10
68439;SHT31;55421;51.600;5.718;2023-03-01T02:42:47;-0.62;69.10
68439;SHT31;55421;51.600;5.718;2023-03-01T02:45:19;-0.66;69.18
68439;SHT31;55421;51.600;5.718;2023-03-01T02:47:46;-0.68;69.28
68439;SHT31;55421;51.600;5.718;2023-03-01T02:50:15;-0.67;69.38
68439;SHT31;55421;51.600;5.718;2023-03-01T02:53:17;-0.67;69.42
68439;SHT31;55421;51.600;5.718;2023-03-01T02:55:56;-0.68;69.50
68439;SHT31;55421;51.600;5.718;2023-03-01T02:58:23;-0.71;69.50
68439;SHT31;55421;51.600;5.718;2023-03-01T03:00:49;-0.75;69.50
68439;SHT31;55421;51.600;5.718;2023-03-01T03:03:17;-0.81;69.50
68439;SHT31;55421;51.600;5.718;2023-03-01T03:05:47;-0.87;69.51
68439;SHT31;55421;51.600;5.718;2023-03-01T03:08:14;-0.92;69.60
68439;SHT31;55421;51.600;5.718;2023-03-01T03:10:49;-0.94;69.73
68439;SHT31;55421;51.600;5.718;2023-03-01T03:13:16;-0.92;69.89
68439;SHT31;55421;51.600;5.718;2023-03-01T03:15:43;-0.90;70.01
68439;SHT31;55421;51.600;5.718;2023-03-01T03:18:14;-0.91;70.03
68439;SHT31;55421;51.600;5.718;2023-03-01T03:20:43;-0.94;70.02
68439;SHT31;55421;51.600;5.718;2023-03-01T03:23:10;-0.97;70.13
68439;SHT31;55421;51.600;5.718;2023-03-01T03:25:38;-0.99;70.20
68439;SHT31;55421;51.600;5.718;2023-03-01T03:28:05;-1.02;70.26
68439;SHT31;55421;51.600;5.718;2023-03-01T03:30:37;-1.06;70.24
68439;SHT31;55421;51.600;5.718;2023-03-01T03:33:06;-1.07;70.31
68439;SHT31;55421;51.600;5.718;2023-03-01T03:35:38;-1.06;70.39
68439;SHT31;55421;51.600;5.718;2023-03-01T03:38:09;-1.03;70.46
68439;SHT31;55421;51.600;5.718;2023-03-01T03:40:45;-1.02;70.54
68439;SHT31;55421;51.600;5.718;2023-03-01T03:43:31;-1.01;70.60
68439;SHT31;55421;51.600;5.718;2023-03-01T03:46:00;-1.01;70.62
68439;SHT31;55421;51.600;5.718;2023-03-01T03:48:35;-1.05;70.62
68439;SHT31;55421;51.600;5.718;2023-03-01T03:51:12;-1.09;70.69
68439;SHT31;55421;51.600;5.718;2023-03-01T03:53:41;-1.13;70.72
68439;SHT31;55421;51.600;5.718;2023-03-01T03:56:09;-1.14;70.73
68439;SHT31;55421;51.600;5.718;2023-03-01T03:58:36;-1.14;70.79
68439;SHT31;55421;51.600;5.718;2023-03-01T04:01:03;-1.12;70.81
68439;SHT31;55421;51.600;5.718;2023-03-01T04:03:30;-1.10;70.90
68439;SHT31;55421;51.600;5.718;2023-03-01T04:05:59;-1.11;70.84
68439;SHT31;55421;51.600;5.718;2023-03-01T04:08:27;-1.12;70.85
68439;SHT31;55421;51.600;5.718;2023-03-01T04:11:01;-1.14;70.91
68439;SHT31;55421;51.600;5.718;2023-03-01T04:13:54;-1.16;71.01
68439;SHT31;55421;51.600;5.718;2023-03-01T04:16:24;-1.18;71.10
68439;SHT31;55421;51.600;5.718;2023-03-01T04:18:51;-1.19;71.11
68439;SHT31;55421;51.600;5.718;2023-03-01T04:21:19;-1.20;71.19
68439;SHT31;55421;51.600;5.718;2023-03-01T04:23:46;-1.19;71.22
68439;SHT31;55421;51.600;5.718;2023-03-01T04:26:12;-1.16;71.29
68439;SHT31;55421;51.600;5.718;2023-03-01T04:28:40;-1.17;71.38
68439;SHT31;55421;51.600;5.718;2023-03-01T04:31:15;-1.19;71.40
68439;SHT31;55421;51.600;5.718;2023-03-01T04:33:48;-1.21;71.41
68439;SHT31;55421;51.600;5.718;2023-03-01T04:36:18;-1.23;71.48
68439;SHT31;55421;51.600;5.718;2023-03-01T04:38:47;-1.28;71.50
68439;SHT31;55421;51.600;5.718;2023-03-01T04:41:14;-1.31;71.56
68439;SHT31;55421;51.600;5.718;2023-03-01T04:43:44;-1.33;71.60
68439;SHT31;55421;51.600;5.718;2023-03-01T04:46:12;-1.32;71.60
68439;SHT31;55421;51.600;5.718;2023-03-01T04:48:42;-1.30;71.62
68439;SHT31;55421;51.600;5.718;2023-03-01T04:51:12;-1.30;71.69
68439;SHT31;55421;51.600;5.718;2023-03-01T04:53:39;-1.31;71.70
68439;SHT31;55421;51.600;5.718;2023-03-01T04:56:07;-1.32;71.70
68439;SHT31;55421;51.600;5.718;2023-03-01T04:58:34;-1.34;71.72
68439;SHT31;55421;51.600;5.718;2023-03-01T05:01:00;-1.36;71.76
68439;SHT31;55421;51.600;5.718;2023-03-01T05:03:27;-1.37;71.81
68439;SHT31;55421;51.600;5.718;2023-03-01T05:05:54;-1.36;71.82
68439;SHT31;55421;51.600;5.718;2023-03-01T05:08:25;-1.31;71.90
68439;SHT31;55421;51.600;5.718;2023-03-01T05:10:52;-1.27;71.91
68439;SHT31;55421;51.600;5.718;2023-03-01T05:13:20;-1.25;71.90
68439;SHT31;55421;51.600;5.718;2023-03-01T05:15:56;-1.24;71.91
68439;SHT31;55421;51.600;5.718;2023-03-01T05:18:26;-1.24;71.90
68439;SHT31;55421;51.600;5.718;2023-03-01T05:20:55;-1.25;71.90
68439;SHT31;55421;51.600;5.718;2023-03-01T05:23:27;-1.28;71.90
68439;SHT31;55421;51.600;5.718;2023-03-01T05:25:53;-1.32;71.89
68439;SHT31;55421;51.600;5.718;2023-03-01T05:28:23;-1.35;71.89
68439;SHT31;55421;51.600;5.718;2023-03-01T05:30:49;-1.35;71.90
68439;SHT31;55421;51.600;5.718;2023-03-01T05:33:17;-1.36;71.90
68439;SHT31;55421;51.600;5.718;2023-03-01T05:35:45;-1.35;71.98
68439;SHT31;55421;51.600;5.718;2023-03-01T05:38:12;-1.39;71.86
68439;SHT31;55421;51.600;5.718;2023-03-01T05:40:39;-1.44;71.80
68439;SHT31;55421;51.600;5.718;2023-03-01T05:43:10;-1.48;71.83
68439;SHT31;55421;51.600;5.718;2023-03-01T05:45:39;-1.51;71.81
68439;SHT31;55421;51.600;5.718;2023-03-01T05:48:07;-1.55;71.75
68439;SHT31;55421;51.600;5.718;2023-03-01T05:50:36;-1.60;71.70
68439;SHT31;55421;51.600;5.718;2023-03-01T05:53:14;-1.65;71.78
68439;SHT31;55421;51.600;5.718;2023-03-01T05:55:45;-1.67;71.80
68439;SHT31;55421;51.600;5.718;2023-03-01T05:58:14;-1.66;71.92
68439;SHT31;55421;51.600;5.718;2023-03-01T06:00:44;-1.61;72.12
68439;SHT31;55421;51.600;5.718;2023-03-01T06:03:13;-1.59;72.28
68439;SHT31;55421;51.600;5.718;2023-03-01T06:05:42;-1.56;72.30
68439;SHT31;55421;51.600;5.718;2023-03-01T06:08:10;-1.57;72.37
68439;SHT31;55421;51.600;5.718;2023-03-01T06:10:37;-1.58;72.42
68439;SHT31;55421;51.600;5.718;2023-03-01T06:13:05;-1.59;72.50
68439;SHT31;55421;51.600;5.718;2023-03-01T06:15:34;-1.63;72.56
68439;SHT31;55421;51.600;5.718;2023-03-01T06:18:01;-1.66;72.61
68439;SHT31;55421;51.600;5.718;2023-03-01T06:20:28;-1.68;72.71
68439;SHT31;55421;51.600;5.718;2023-03-01T06:22:55;-1.66;72.79
68439;SHT31;55421;51.600;5.718;2023-03-01T06:25:22;-1.64;72.80
68439;SHT31;55421;51.600;5.718;2023-03-01T06:27:51;-1.65;72.87
68439;SHT31;55421;51.600;5.718;2023-03-01T06:30:19;-1.66;72.90
68439;SHT31;55421;51.600;5.718;2023-03-01T06:32:47;-1.67;72.91
68439;SHT31;55421;51.600;5.718;2023-03-01T06:35:15;-1.68;73.00
68439;SHT31;55421;51.600;5.718;2023-03-01T06:37:44;-1.67;73.01
68439;SHT31;55421;51.600;5.718;2023-03-01T06:40:13;-1.65;73.04
68439;SHT31;55421;51.600;5.718;2023-03-01T06:42:41;-1.59;73.10
68439;SHT31;55421;51.600;5.718;2023-03-01T06:45:13;-1.51;73.10
68439;SHT31;55421;51.600;5.718;2023-03-01T06:47:39;-1.44;73.09
68439;SHT31;55421;51.600;5.718;2023-03-01T06:50:06;-1.39;72.96
68439;SHT31;55421;51.600;5.718;2023-03-01T06:52:33;-1.36;72.90
68439;SHT31;55421;51.600;5.718;2023-03-01T06:55:00;-1.33;72.90
68439;SHT31;55421;51.600;5.718;2023-03-01T06:57:27;-1.30;72.89
68439;SHT31;55421;51.600;5.718;2023-03-01T06:59:53;-1.29;72.89
68439;SHT31;55421;51.600;5.718;2023-03-01T07:02:20;-1.27;72.87
68439;SHT31;55421;51.600;5.718;2023-03-01T07:04:51;-1.26;72.82
68439;SHT31;55421;51.600;5.718;2023-03-01T07:07:18;-1.21;72.80
68439;SHT31;55421;51.600;5.718;2023-03-01T07:09:45;-1.15;72.80
68439;SHT31;55421;51.600;5.718;2023-03-01T07:12:12;-1.09;72.80
68439;SHT31;55421;51.600;5.718;2023-03-01T07:14:43;-1.05;72.73
68439;SHT31;55421;51.600;5.718;2023-03-01T07:17:13;-1.02;72.70
68439;SHT31;55421;51.600;5.718;2023-03-01T07:19:40;-0.97;72.70
68439;SHT31;55421;51.600;5.718;2023-03-01T07:22:06;-0.94;72.70
68439;SHT31;55421;51.600;5.718;2023-03-01T07:24:36;-0.91;72.71
68439;SHT31;55421;51.600;5.718;2023-03-01T07:27:02;-0.87;72.77
68439;SHT31;55421;51.600;5.718;2023-03-01T07:29:29;-0.81;72.73
68439;SHT31;55421;51.600;5.718;2023-03-01T07:31:55;-0.71;72.70
68439;SHT31;55421;51.600;5.718;2023-03-01T07:34:22;-0.61;72.70
68439;SHT31;55421;51.600;5.718;2023-03-01T07:36:48;-0.52;72.70
68439;SHT31;55421;51.600;5.718;2023-03-01T07:39:15;-0.44;72.70
68439;SHT31;55421;51.600;5.718;2023-03-01T07:41:42;-0.36;72.67
68439;SHT31;55421;51.600;5.718;2023-03-01T07:44:08;-0.30;72.60
68439;SHT31;55421;51.600;5.718;2023-03-01T07:46:35;-0.24;72.59
68439;SHT31;55421;51.600;5.718;2023-03-01T07:49:01;-0.15;72.59
68439;SHT31;55421;51.600;5.718;2023-03-01T07:51:28;-0.04;72.53
68439;SHT31;55421;51.600;5.718;2023-03-01T07:53:54;0.07;72.47
68439;SHT31;55421;51.600;5.718;2023-03-01T07:56:21;0.19;72.39
68439;SHT31;55421;51.600;5.718;2023-03-01T07:58:48;0.28;72.21
68439;SHT31;55421;51.600;5.718;2023-03-01T08:01:16;0.37;72.02
68439;SHT31;55421;51.600;5.718;2023-03-01T08:03:45;0.45;71.84
68439;SHT31;55421;51.600;5.718;2023-03-01T08:06:13;0.52;71.78
68439;SHT31;55421;51.600;5.718;2023-03-01T08:08:42;0.59;71.62
68439;SHT31;55421;51.600;5.718;2023-03-01T08:11:10;0.68;71.45
68439;SHT31;55421;51.600;5.718;2023-03-01T08:13:39;0.81;71.19
68439;SHT31;55421;51.600;5.718;2023-03-01T08:16:11;0.90;71.10
68439;SHT31;55421;51.600;5.718;2023-03-01T08:18:40;1.01;71.02
68439;SHT31;55421;51.600;5.718;2023-03-01T08:21:10;1.11;70.85
68439;SHT31;55421;51.600;5.718;2023-03-01T08:23:40;1.19;70.71
68439;SHT31;55421;51.600;5.718;2023-03-01T08:26:08;1.27;70.44
68439;SHT31;55421;51.600;5.718;2023-03-01T08:28:47;1.31;70.21
68439;SHT31;55421;51.600;5.718;2023-03-01T08:33:54;1.41;70.06
68439;SHT31;55421;51.600;5.718;2023-03-01T08:36:24;1.47;69.91
68439;SHT31;55421;51.600;5.718;2023-03-01T08:39:00;1.57;69.85
68439;SHT31;55421;51.600;5.718;2023-03-01T08:41:27;1.68;69.80
68439;SHT31;55421;51.600;5.718;2023-03-01T08:43:54;1.77;69.67
68439;SHT31;55421;51.600;5.718;2023-03-01T08:46:25;1.85;69.35
68439;SHT31;55421;51.600;5.718;2023-03-01T08:48:57;1.92;69.09
68439;SHT31;55421;51.600;5.718;2023-03-01T08:51:24;1.95;68.76
68439;SHT31;55421;51.600;5.718;2023-03-01T08:53:52;2.00;68.65
68439;SHT31;55421;51.600;5.718;2023-03-01T08:56:19;2.02;68.44
68439;SHT31;55421;51.600;5.718;2023-03-01T08:58:46;2.06;68.20
68439;SHT31;55421;51.600;5.718;2023-03-01T09:01:16;2.10;68.01
68439;SHT31;55421;51.600;5.718;2023-03-01T09:03:44;2.14;67.90
68439;SHT31;55421;51.600;5.718;2023-03-01T09:06:12;2.19;67.84
68439;SHT31;55421;51.600;5.718;2023-03-01T09:08:44;2.25;67.80
68439;SHT31;55421;51.600;5.718;2023-03-01T09:11:15;2.31;67.79
68439;SHT31;55421;51.600;5.718;2023-03-01T09:13:46;2.37;67.66
68439;SHT31;55421;51.600;5.718;2023-03-01T09:16:15;2.43;67.57
68439;SHT31;55421;51.600;5.718;2023-03-01T09:18:45;2.51;67.67
68439;SHT31;55421;51.600;5.718;2023-03-01T09:21:16;2.61;67.63
68439;SHT31;55421;51.600;5.718;2023-03-01T09:23:47;2.72;67.37
68439;SHT31;55421;51.600;5.718;2023-03-01T09:26:18;2.83;66.96
68439;SHT31;55421;51.600;5.718;2023-03-01T09:28:51;2.90;66.74
68439;SHT31;55421;51.600;5.718;2023-03-01T09:31:21;2.98;66.31
68439;SHT31;55421;51.600;5.718;2023-03-01T09:33:50;3.05;66.19
68439;SHT31;55421;51.600;5.718;2023-03-01T09:36:20;3.10;65.73
68439;SHT31;55421;51.600;5.718;2023-03-01T09:38:54;3.16;65.46
68439;SHT31;55421;51.600;5.718;2023-03-01T09:44:40;3.27;64.83
68439;SHT31;55421;51.600;5.718;2023-03-01T09:47:36;3.33;64.71
68439;SHT31;55421;51.600;5.718;2023-03-01T09:50:08;3.39;64.52
68439;SHT31;55421;51.600;5.718;2023-03-01T09:52:43;3.46;64.33
68439;SHT31;55421;51.600;5.718;2023-03-01T09:55:26;3.52;64.01
68439;SHT31;55421;51.600;5.718;2023-03-01T10:01:23;3.68;63.42
68439;SHT31;55421;51.600;5.718;2023-03-01T10:09:39;3.85;61.66
68439;SHT31;55421;51.600;5.718;2023-03-01T10:12:12;3.90;61.69
68439;SHT31;55421;51.600;5.718;2023-03-01T10:17:43;4.08;61.35
68439;SHT31;55421;51.600;5.718;2023-03-01T10:20:22;4.14;60.95
68439;SHT31;55421;51.600;5.718;2023-03-01T10:22:52;4.19;60.12
68439;SHT31;55421;51.600;5.718;2023-03-01T10:31:43;4.38;60.14
68439;SHT31;55421;51.600;5.718;2023-03-01T10:34:36;4.44;59.75
68439;SHT31;55421;51.600;5.718;2023-03-01T10:37:20;4.49;59.46
68439;SHT31;55421;51.600;5.718;2023-03-01T10:40:04;4.54;59.07
68439;SHT31;55421;51.600;5.718;2023-03-01T10:42:46;4.57;59.10
68439;SHT31;55421;51.600;5.718;2023-03-01T10:45:17;4.64;59.07
68439;SHT31;55421;51.600;5.718;2023-03-01T10:48:08;4.71;58.93
68439;SHT31;55421;51.600;5.718;2023-03-01T10:50:46;4.77;59.06
68439;SHT31;55421;51.600;5.718;2023-03-01T10:53:23;4.84;58.83
68439;SHT31;55421;51.600;5.718;2023-03-01T10:56:04;4.89;58.47
68439;SHT31;55421;51.600;5.718;2023-03-01T10:58:35;4.94;58.45
68439;SHT31;55421;51.600;5.718;2023-03-01T11:01:06;5.00;58.18
68439;SHT31;55421;51.600;5.718;2023-03-01T11:06:33;5.08;57.64
68439;SHT31;55421;51.600;5.718;2023-03-01T11:09:16;5.13;57.66
68439;SHT31;55421;51.600;5.718;2023-03-01T11:11:51;5.19;57.68
68439;SHT31;55421;51.600;5.718;2023-03-01T11:14:24;5.28;57.89
68439;SHT31;55421;51.600;5.718;2023-03-01T11:17:11;5.34;57.29
68439;SHT31;55421;51.600;5.718;2023-03-01T11:19:43;5.39;56.96
68439;SHT31;55421;51.600;5.718;2023-03-01T11:22:40;5.46;56.70
68439;SHT31;55421;51.600;5.718;2023-03-01T11:25:26;5.49;56.40
68439;SHT31;55421;51.600;5.718;2023-03-01T11:28:02;5.55;56.38
68439;SHT31;55421;51.600;5.718;2023-03-01T11:33:44;5.62;55.74
68439;SHT31;55421;51.600;5.718;2023-03-01T11:36:40;5.65;55.27
68439;SHT31;55421;51.600;5.718;2023-03-01T11:39:39;5.67;55.27
68439;SHT31;55421;51.600;5.718;2023-03-01T11:42:18;5.73;55.21
68439;SHT31;55421;51.600;5.718;2023-03-01T11:44:54;5.76;54.91
68439;SHT31;55421;51.600;5.718;2023-03-01T11:47:30;5.75;54.60
68439;SHT31;55421;51.600;5.718;2023-03-01T11:50:23;5.73;54.53
68439;SHT31;55421;51.600;5.718;2023-03-01T11:59:01;5.74;54.39
68439;SHT31;55421;51.600;5.718;2023-03-01T12:10:24;5.96;54.89
68439;SHT31;55421;51.600;5.718;2023-03-01T12:22:31;6.01;54.28
68439;SHT31;55421;51.600;5.718;2023-03-01T12:30:35;6.03;53.56
68439;SHT31;55421;51.600;5.718;2023-03-01T12:36:21;6.05;53.66
68439;SHT31;55421;51.600;5.718;2023-03-01T12:39:21;6.07;53.74
68439;SHT31;55421;51.600;5.718;2023-03-01T12:48:18;6.18;53.43
68439;SHT31;55421;51.600;5.718;2023-03-01T12:50:53;6.20;53.51
68439;SHT31;55421;51.600;5.718;2023-03-01T12:53:28;6.24;53.50
68439;SHT31;55421;51.600;5.718;2023-03-01T12:56:08;6.31;53.53
68439;SHT31;55421;51.600;5.718;2023-03-01T13:01:42;6.33;52.84
68439;SHT31;55421;51.600;5.718;2023-03-01T13:04:29;6.36;53.45
68439;SHT31;55421;51.600;5.718;2023-03-01T13:07:41;6.40;53.06
68439;SHT31;55421;51.600;5.718;2023-03-01T13:10:24;6.39;52.65
68439;SHT31;55421;51.600;5.718;2023-03-01T13:15:35;6.39;52.28
68439;SHT31;55421;51.600;5.718;2023-03-01T13:18:04;6.39;52.16
68439;SHT31;55421;51.600;5.718;2023-03-01T13:20:55;6.40;52.37
68439;SHT31;55421;51.600;5.718;2023-03-01T13:23:25;6.45;52.73
68439;SHT31;55421;51.600;5.718;2023-03-01T13:31:11;6.58;51.88
68439;SHT31;55421;51.600;5.718;2023-03-01T13:37:10;6.57;51.83
68439;SHT31;55421;51.600;5.718;2023-03-01T13:39:47;6.58;51.89
68439;SHT31;55421;51.600;5.718;2023-03-01T13:47:49;6.64;51.55
68439;SHT31;55421;51.600;5.718;2023-03-01T13:50:27;6.68;51.66
68439;SHT31;55421;51.600;5.718;2023-03-01T13:53:10;6.70;51.46
68439;SHT31;55421;51.600;5.718;2023-03-01T13:55:46;6.72;51.67
68439;SHT31;55421;51.600;5.718;2023-03-01T13:58:27;6.74;51.21
68439;SHT31;55421;51.600;5.718;2023-03-01T14:00:58;6.75;51.18
68439;SHT31;55421;51.600;5.718;2023-03-01T14:03:32;6.78;51.48
68439;SHT31;55421;51.600;5.718;2023-03-01T14:06:16;6.81;51.29
68439;SHT31;55421;51.600;5.718;2023-03-01T14:08:48;6.81;50.86
68439;SHT31;55421;51.600;5.718;2023-03-01T14:14:20;6.83;51.09
68439;SHT31;55421;51.600;5.718;2023-03-01T14:20:12;6.89;50.61
68439;SHT31;55421;51.600;5.718;2023-03-01T14:22:45;6.87;50.27
68439;SHT31;55421;51.600;5.718;2023-03-01T14:25:31;6.86;50.15
68439;SHT31;55421;51.600;5.718;2023-03-01T14:28:03;6.86;50.12
68439;SHT31;55421;51.600;5.718;2023-03-01T14:30:42;6.86;50.11
68439;SHT31;55421;51.600;5.718;2023-03-01T14:33:22;6.89;50.21
68439;SHT31;55421;51.600;5.718;2023-03-01T14:35:57;6.92;50.19
68439;SHT31;55421;51.600;5.718;2023-03-01T14:38:35;6.91;49.92
68439;SHT31;55421;51.600;5.718;2023-03-01T14:41:09;6.93;50.03
68439;SHT31;55421;51.600;5.718;2023-03-01T14:43:43;6.93;49.77
68439;SHT31;55421;51.600;5.718;2023-03-01T14:49:16;6.95;49.96
68439;SHT31;55421;51.600;5.718;2023-03-01T14:51:57;6.98;49.92
68439;SHT31;55421;51.600;5.718;2023-03-01T14:54:39;6.96;49.71
68439;SHT31;55421;51.600;5.718;2023-03-01T14:57:14;6.97;50.02
68439;SHT31;55421;51.600;5.718;2023-03-01T14:59:45;6.96;49.77
68439;SHT31;55421;51.600;5.718;2023-03-01T15:02:15;6.96;49.54
68439;SHT31;55421;51.600;5.718;2023-03-01T15:04:49;6.97;49.89
68439;SHT31;55421;51.600;5.718;2023-03-01T15:07:23;6.96;49.94
68439;SHT31;55421;51.600;5.718;2023-03-01T15:09:58;6.96;50.02
68439;SHT31;55421;51.600;5.718;2023-03-01T15:15:19;6.95;49.69
68439;SHT31;55421;51.600;5.718;2023-03-01T15:17:53;6.94;49.80
68439;SHT31;55421;51.600;5.718;2023-03-01T15:20:23;6.92;49.56
68439;SHT31;55421;51.600;5.718;2023-03-01T15:22:53;6.92;49.69
68439;SHT31;55421;51.600;5.718;2023-03-01T15:25:23;6.91;49.59
68439;SHT31;55421;51.600;5.718;2023-03-01T15:27:56;6.89;49.58
68439;SHT31;55421;51.600;5.718;2023-03-01T15:30:27;6.88;49.48
68439;SHT31;55421;51.600;5.718;2023-03-01T15:33:20;6.86;49.68
68439;SHT31;55421;51.600;5.718;2023-03-01T15:36:01;6.84;49.87
68439;SHT31;55421;51.600;5.718;2023-03-01T15:42:05;6.82;50.14
68439;SHT31;55421;51.600;5.718;2023-03-01T15:44:28;6.80;50.02
68439;SHT31;55421;51.600;5.718;2023-03-01T15:47:04;6.77;49.96
68439;SHT31;55421;51.600;5.718;2023-03-01T15:49:51;6.74;50.35
68439;SHT31;55421;51.600;5.718;2023-03-01T15:52:25;6.74;50.46
68439;SHT31;55421;51.600;5.718;2023-03-01T15:55:14;6.72;50.07
68439;SHT31;55421;51.600;5.718;2023-03-01T15:57:47;6.69;50.06
68439;SHT31;55421;51.600;5.718;2023-03-01T16:00:16;6.66;49.90
68439;SHT31;55421;51.600;5.718;2023-03-01T16:02:44;6.63;49.93
68439;SHT31;55421;51.600;5.718;2023-03-01T16:07:49;6.58;50.18
68439;SHT31;55421;51.600;5.718;2023-03-01T16:10:16;6.55;50.23
68439;SHT31;55421;51.600;5.718;2023-03-01T16:12:43;6.53;50.28
68439;SHT31;55421;51.600;5.718;2023-03-01T16:15:20;6.50;50.66
68439;SHT31;55421;51.600;5.718;2023-03-01T16:17:53;6.46;50.89
68439;SHT31;55421;51.600;5.718;2023-03-01T16:20:20;6.43;50.89
68439;SHT31;55421;51.600;5.718;2023-03-01T16:22:47;6.40;50.79
68439;SHT31;55421;51.600;5.718;2023-03-01T16:25:15;6.35;50.80
68439;SHT31;55421;51.600;5.718;2023-03-01T16:27:46;6.32;50.99
68439;SHT31;55421;51.600;5.718;2023-03-01T16:30:15;6.28;51.04
68439;SHT31;55421;51.600;5.718;2023-03-01T16:32:45;6.23;51.00
68439;SHT31;55421;51.600;5.718;2023-03-01T16:35:14;6.19;51.03
68439;SHT31;55421;51.600;5.718;2023-03-01T16:37:44;6.14;51.20
68439;SHT31;55421;51.600;5.718;2023-03-01T16:40:18;6.10;51.28
68439;SHT31;55421;51.600;5.718;2023-03-01T16:42:52;6.08;51.24
68439;SHT31;55421;51.600;5.718;2023-03-01T16:45:35;6.06;51.38
68439;SHT31;55421;51.600;5.718;2023-03-01T16:48:02;6.02;51.48
68439;SHT31;55421;51.600;5.718;2023-03-01T16:50:29;5.98;51.18
68439;SHT31;55421;51.600;5.718;2023-03-01T16:52:56;5.96;51.23
68439;SHT31;55421;51.600;5.718;2023-03-01T16:55:22;5.93;51.23
68439;SHT31;55421;51.600;5.718;2023-03-01T16:57:50;5.92;51.36
68439;SHT31;55421;51.600;5.718;2023-03-01T17:00:17;5.90;51.37
68439;SHT31;55421;51.600;5.718;2023-03-01T17:02:44;5.86;51.47
68439;SHT31;55421;51.600;5.718;2023-03-01T17:05:10;5.78;51.58
68439;SHT31;55421;51.600;5.718;2023-03-01T17:07:37;5.69;51.77
68439;SHT31;55421;51.600;5.718;2023-03-01T17:10:06;5.60;52.02
68439;SHT31;55421;51.600;5.718;2023-03-01T17:12:36;5.51;52.21
68439;SHT31;55421;51.600;5.718;2023-03-01T17:15:04;5.43;52.38
68439;SHT31;55421;51.600;5.718;2023-03-01T17:17:32;5.36;52.62
68439;SHT31;55421;51.600;5.718;2023-03-01T17:20:00;5.27;52.83
68439;SHT31;55421;51.600;5.718;2023-03-01T17:22:27;5.18;52.99
68439;SHT31;55421;51.600;5.718;2023-03-01T17:24:53;5.10;53.22
68439;SHT31;55421;51.600;5.718;2023-03-01T17:27:20;5.02;53.40
68439;SHT31;55421;51.600;5.718;2023-03-01T17:29:46;4.94;53.60
68439;SHT31;55421;51.600;5.718;2023-03-01T17:32:13;4.86;53.84
68439;SHT31;55421;51.600;5.718;2023-03-01T17:34:40;4.80;54.03
68439;SHT31;55421;51.600;5.718;2023-03-01T17:37:06;4.74;54.21
68439;SHT31;55421;51.600;5.718;2023-03-01T17:39:33;4.68;54.42
68439;SHT31;55421;51.600;5.718;2023-03-01T17:42:02;4.62;54.62
68439;SHT31;55421;51.600;5.718;2023-03-01T17:44:31;4.57;54.81
68439;SHT31;55421;51.600;5.718;2023-03-01T17:47:00;4.51;55.00
68439;SHT31;55421;51.600;5.718;2023-03-01T17:49:28;4.45;55.15
68439;SHT31;55421;51.600;5.718;2023-03-01T17:51:55;4.41;55.28
68439;SHT31;55421;51.600;5.718;2023-03-01T17:54:22;4.37;55.38
68439;SHT31;55421;51.600;5.718;2023-03-01T17:56:49;4.32;55.55
68439;SHT31;55421;51.600;5.718;2023-03-01T17:59:17;4.27;55.76
68439;SHT31;55421;51.600;5.718;2023-03-01T18:01:44;4.21;55.91
68439;SHT31;55421;51.600;5.718;2023-03-01T18:04:11;4.18;56.02